Time;durP1;ratioP1;P1;durP2;ratioP2;P2;SDS_P1;SDS_P2;PMS_P1;PMS_P2;Temp;Humidity;BMP_temperature;BMP_pressure;BME280_temperature;BME280_humidity;BME280_pressure;Samples;Min_cycle;Max_cycle;Signal;HPM_P1;HPM_P2
2022/04/09 00:00:11;;;;;;;17.50;6.22;;;;;;;;;;5052228;28;20040;-59
2022/04/09 00:02:37;;;;;;;17.05;6.28;;;;;;;;;;5052744;28;20112;-59
2022/04/09 00:05:03;;;;;;;18.60;5.70;;;;;;;;;;5052322;28;20041;-57
2022/04/09 00:07:29;;;;;;;17.00;6.13;;;;;;;;;;5034821;28;20374;-55
2022/04/09 00:09:55;;;;;;;18.55;6.55;;;;;;;;;;5052356;28;20021;-61
2022/04/09 00:12:21;;;;;;;17.70;5.57;;;;;;;;;;5052729;28;20028;-59
2022/04/09 00:14:47;;;;;;;20.20;7.20;;;;;;;;;;5052378;28;20481;-60
2022/04/09 00:17:13;;;;;;;16.55;6.00;;;;;;;;;;5052331;28;20036;-62
2022/04/09 00:19:39;;;;;;;20.52;6.70;;;;;;;;;;5051983;28;20032;-60
2022/04/09 00:22:05;;;;;;;17.45;6.18;;;;;;;;;;5052557;28;20435;-60
2022/04/09 00:24:31;;;;;;;16.60;6.85;;;;;;;;;;5051341;28;20028;-61
2022/04/09 00:26:57;;;;;;;22.00;6.90;;;;;;;;;;5034536;28;20485;-60
2022/04/09 00:29:23;;;;;;;19.70;6.63;;;;;;;;;;5051782;28;20082;-60
2022/04/09 00:31:49;;;;;;;19.35;6.40;;;;;;;;;;5052709;28;20036;-61
2022/04/09 00:34:15;;;;;;;17.35;6.35;;;;;;;;;;5051784;28;20655;-58
2022/04/09 00:36:41;;;;;;;17.85;5.80;;;;;;;;;;5051786;28;20405;-59
2022/04/09 00:39:07;;;;;;;19.95;7.70;;;;;;;;;;5052036;28;20058;-60
2022/04/09 00:41:33;;;;;;;21.50;6.63;;;;;;;;;;5052050;28;20100;-59
2022/04/09 00:43:59;;;;;;;16.95;6.25;;;;;;;;;;5052087;28;20577;-59
2022/04/09 00:46:25;;;;;;;17.48;6.93;;;;;;;;;;5034013;28;20067;-56
2022/04/09 00:48:51;;;;;;;16.52;6.38;;;;;;;;;;5051823;28;20055;-60
2022/04/09 00:51:18;;;;;;;19.38;6.97;;;;;;;;;;5052205;28;20529;-60
2022/04/09 00:53:47;;;;;;;18.45;6.53;;;;;;;;;;5051983;28;20031;-58
2022/04/09 00:56:13;;;;;;;18.63;7.25;;;;;;;;;;5051513;28;20108;-56
2022/04/09 00:58:41;;;;;;;14.45;6.10;;;;;;;;;;5034146;28;20029;-59
2022/04/09 01:01:08;;;;;;;19.33;8.10;;;;;;;;;;5051476;28;20025;-57
2022/04/09 01:03:34;;;;;;;19.80;6.43;;;;;;;;;;5052282;28;20029;-59
2022/04/09 01:06:00;;;;;;;18.73;7.38;;;;;;;;;;5052179;28;20529;-59
2022/04/09 01:08:26;;;;;;;17.08;6.40;;;;;;;;;;5051902;28;20033;-60
2022/04/09 01:10:52;;;;;;;17.15;6.10;;;;;;;;;;5051624;28;20021;-61
2022/04/09 01:13:19;;;;;;;17.33;6.20;;;;;;;;;;5051927;28;20029;-58
2022/04/09 01:15:45;;;;;;;18.25;6.72;;;;;;;;;;5052175;28;20025;-56
2022/04/09 01:18:11;;;;;;;18.70;6.40;;;;;;;;;;5053071;28;20078;-60
2022/04/09 01:20:37;;;;;;;17.92;6.85;;;;;;;;;;5034349;28;20440;-60
2022/04/09 01:23:03;;;;;;;20.65;6.53;;;;;;;;;;5053413;28;20021;-61
2022/04/09 01:25:29;;;;;;;16.83;6.68;;;;;;;;;;5034457;28;20104;-56
2022/04/09 01:27:56;;;;;;;16.10;6.05;;;;;;;;;;5052210;28;20024;-58
2022/04/09 01:30:22;;;;;;;22.63;6.00;;;;;;;;;;5051322;28;20064;-63
2022/04/09 01:32:48;;;;;;;18.27;6.32;;;;;;;;;;5051871;28;20060;-60
2022/04/09 01:35:14;;;;;;;21.38;6.20;;;;;;;;;;5051615;28;20055;-53
2022/04/09 01:37:40;;;;;;;16.35;6.07;;;;;;;;;;5055465;28;20037;-55
2022/04/09 01:40:06;;;;;;;15.30;5.90;;;;;;;;;;5037033;28;20128;-60
2022/04/09 01:42:32;;;;;;;19.60;6.30;;;;;;;;;;5055356;28;20033;-58
2022/04/09 01:44:58;;;;;;;15.45;6.10;;;;;;;;;;5054815;28;20362;-60
2022/04/09 01:47:24;;;;;;;16.92;6.20;;;;;;;;;;5037353;28;20032;-62
2022/04/09 01:49:51;;;;;;;18.65;6.20;;;;;;;;;;5036842;28;20112;-59
2022/04/09 01:52:17;;;;;;;15.75;6.93;;;;;;;;;;5055035;28;20025;-61
2022/04/09 01:54:43;;;;;;;15.73;6.45;;;;;;;;;;5054728;28;20436;-58
2022/04/09 01:57:09;;;;;;;15.38;6.57;;;;;;;;;;5055029;28;20035;-60
2022/04/09 01:59:35;;;;;;;16.73;6.03;;;;;;;;;;5054646;28;20031;-58
2022/04/09 02:02:01;;;;;;;16.67;6.72;;;;;;;;;;5055394;28;20117;-58
2022/04/09 02:04:27;;;;;;;15.52;6.03;;;;;;;;;;5054617;28;20096;-62
2022/04/09 02:06:54;;;;;;;15.10;5.70;;;;;;;;;;5055039;28;20040;-60
2022/04/09 02:09:20;;;;;;;13.70;6.07;;;;;;;;;;5054678;28;20024;-58
2022/04/09 02:11:46;;;;;;;17.55;6.20;;;;;;;;;;5037145;28;20385;-62
2022/04/09 02:14:12;;;;;;;16.25;6.50;;;;;;;;;;5054409;28;20075;-61
2022/04/09 02:16:39;;;;;;;15.95;5.60;;;;;;;;;;5054861;28;20031;-62
2022/04/09 02:19:05;;;;;;;14.82;6.03;;;;;;;;;;5036965;28;20033;-59
2022/04/09 02:21:32;;;;;;;17.30;6.53;;;;;;;;;;5055076;28;20029;-60
2022/04/09 02:23:58;;;;;;;19.38;6.47;;;;;;;;;;5054465;28;20559;-63
2022/04/09 02:26:24;;;;;;;16.73;6.05;;;;;;;;;;5054447;28;20031;-62
2022/04/09 02:28:50;;;;;;;17.83;6.65;;;;;;;;;;5054323;28;20021;-60
2022/04/09 02:31:17;;;;;;;14.77;5.68;;;;;;;;;;5036819;28;20029;-60
2022/04/09 02:33:44;;;;;;;21.58;6.13;;;;;;;;;;5054518;28;20472;-62
2022/04/09 02:36:12;;;;;;;19.25;6.82;;;;;;;;;;5054526;28;20082;-62
2022/04/09 02:38:38;;;;;;;16.48;6.25;;;;;;;;;;5036816;28;20116;-62
2022/04/09 02:41:04;;;;;;;16.55;5.78;;;;;;;;;;5054136;28;20032;-61
2022/04/09 02:43:30;;;;;;;17.15;6.60;;;;;;;;;;5055130;28;20477;-60
2022/04/09 02:45:57;;;;;;;17.70;6.07;;;;;;;;;;5054424;28;20033;-61
2022/04/09 02:48:23;;;;;;;20.92;6.78;;;;;;;;;;5035465;28;20548;-62
2022/04/09 02:50:49;;;;;;;18.10;6.35;;;;;;;;;;5053949;28;20025;-59
2022/04/09 02:53:15;;;;;;;17.75;6.32;;;;;;;;;;5054096;28;20082;-60
2022/04/09 02:55:41;;;;;;;16.00;7.13;;;;;;;;;;5053442;28;20025;-60
2022/04/09 02:58:07;;;;;;;17.17;6.32;;;;;;;;;;5053961;28;20032;-58
2022/04/09 03:00:33;;;;;;;18.10;6.07;;;;;;;;;;5053681;28;20028;-60
2022/04/09 03:02:59;;;;;;;15.05;5.80;;;;;;;;;;5053879;28;20032;-60
2022/04/09 03:05:25;;;;;;;21.75;6.28;;;;;;;;;;5053809;28;20017;-60
2022/04/09 03:07:51;;;;;;;18.58;6.65;;;;;;;;;;5035961;28;20405;-59
2022/04/09 03:10:17;;;;;;;14.70;5.93;;;;;;;;;;5053173;28;20032;-60
2022/04/09 03:12:44;;;;;;;22.52;6.53;;;;;;;;;;5035782;28;20052;-57
2022/04/09 03:15:10;;;;;;;16.50;6.10;;;;;;;;;;5053347;28;20085;-60
2022/04/09 03:17:36;;;;;;;17.38;5.93;;;;;;;;;;5053790;28;20070;-61
2022/04/09 03:20:03;;;;;;;15.27;6.45;;;;;;;;;;5053416;28;20489;-60
2022/04/09 03:22:30;;;;;;;18.23;6.07;;;;;;;;;;5053683;28;20047;-59
2022/04/09 03:24:57;;;;;;;19.83;6.28;;;;;;;;;;5035354;28;20110;-61
2022/04/09 03:27:23;;;;;;;20.27;5.88;;;;;;;;;;5054028;28;20078;-61
2022/04/09 03:29:49;;;;;;;17.65;5.82;;;;;;;;;;5053370;28;20032;-62
2022/04/09 03:32:15;;;;;;;18.30;6.45;;;;;;;;;;5053622;28;20029;-59
2022/04/09 03:34:41;;;;;;;20.80;6.50;;;;;;;;;;5053016;28;20528;-55
2022/04/09 03:37:07;;;;;;;18.17;5.82;;;;;;;;;;5051404;28;20048;-60
2022/04/09 03:39:33;;;;;;;16.90;6.97;;;;;;;;;;5053134;28;20049;-61
2022/04/09 03:41:59;;;;;;;20.05;6.43;;;;;;;;;;5034902;28;20037;-60
2022/04/09 03:44:25;;;;;;;15.60;5.68;;;;;;;;;;5052792;28;20500;-60
2022/04/09 03:46:57;;;;;;;15.38;5.72;;;;;;;;;;5051665;28;20021;-61
2022/04/09 03:49:23;;;;;;;20.55;6.35;;;;;;;;;;5052715;28;20432;-59
2022/04/09 03:51:49;;;;;;;18.08;5.60;;;;;;;;;;5035357;28;20021;-61
2022/04/09 03:54:15;;;;;;;19.73;6.32;;;;;;;;;;5052757;28;20029;-57
2022/04/09 03:56:43;;;;;;;19.05;6.18;;;;;;;;;;5052965;28;20039;-58
2022/04/09 03:59:09;;;;;;;18.05;6.05;;;;;;;;;;5052670;28;20025;-60
2022/04/09 04:01:35;;;;;;;20.70;6.25;;;;;;;;;;5053120;28;20029;-60
2022/04/09 04:04:01;;;;;;;17.58;5.55;;;;;;;;;;5052661;28;20025;-60
2022/04/09 04:06:27;;;;;;;19.92;6.05;;;;;;;;;;5052656;28;20025;-60
2022/04/09 04:08:55;;;;;;;17.30;6.10;;;;;;;;;;5034687;28;20024;-60
2022/04/09 04:11:22;;;;;;;16.25;6.40;;;;;;;;;;5034941;28;20053;-59
2022/04/09 04:13:48;;;;;;;19.30;6.75;;;;;;;;;;5052848;28;20483;-60
2022/04/09 04:16:15;;;;;;;22.02;6.15;;;;;;;;;;5052469;28;20028;-60
2022/04/09 04:18:41;;;;;;;16.35;6.50;;;;;;;;;;5052812;28;20388;-62
2022/04/09 04:21:07;;;;;;;19.02;7.10;;;;;;;;;;5052344;28;20025;-62
2022/04/09 04:23:33;;;;;;;18.80;6.82;;;;;;;;;;5052496;28;20401;-60
2022/04/09 04:25:59;;;;;;;24.98;7.68;;;;;;;;;;5052373;28;20013;-61
2022/04/09 04:28:25;;;;;;;23.38;7.75;;;;;;;;;;5052472;28;20051;-60
2022/04/09 04:30:51;;;;;;;19.45;6.45;;;;;;;;;;5034148;28;20104;-59
2022/04/09 04:33:17;;;;;;;18.35;6.82;;;;;;;;;;5034690;28;20025;-60
2022/04/09 04:35:44;;;;;;;20.08;8.50;;;;;;;;;;5034094;28;20050;-61
2022/04/09 04:38:10;;;;;;;22.23;7.43;;;;;;;;;;5052387;28;20024;-62
2022/04/09 04:40:35;;;;;;;18.52;7.35;;;;;;;;;;5051983;28;20229;-61
2022/04/09 04:43:01;;;;;;;33.38;8.95;;;;;;;;;;5052192;28;20032;-61
2022/04/09 04:45:27;;;;;;;16.85;7.25;;;;;;;;;;5033803;28;20017;-61
2022/04/09 04:47:53;;;;;;;18.38;7.38;;;;;;;;;;5052408;28;20079;-61
2022/04/09 04:50:19;;;;;;;27.35;8.23;;;;;;;;;;5051769;28;20444;-62
2022/04/09 04:52:46;;;;;;;18.75;7.28;;;;;;;;;;5052320;28;20029;-61
2022/04/09 04:55:12;;;;;;;16.13;6.80;;;;;;;;;;5052144;28;20371;-62
2022/04/09 04:57:41;;;;;;;19.42;7.68;;;;;;;;;;5052412;28;20021;-61
2022/04/09 05:00:08;;;;;;;19.38;8.15;;;;;;;;;;5052060;28;20104;-61
2022/04/09 05:02:34;;;;;;;18.27;8.13;;;;;;;;;;5052117;28;20043;-60
2022/04/09 05:05:01;;;;;;;21.73;8.93;;;;;;;;;;5033612;28;20021;-59
2022/04/09 05:07:36;;;;;;;23.90;8.05;;;;;;;;;;5050620;28;20025;-59
2022/04/09 05:10:04;;;;;;;20.83;8.05;;;;;;;;;;5051736;28;20040;-60
2022/04/09 05:12:30;;;;;;;19.13;8.00;;;;;;;;;;5056788;28;20025;-60
2022/04/09 05:14:56;;;;;;;16.23;7.25;;;;;;;;;;5038433;28;20393;-63
2022/04/09 05:17:22;;;;;;;17.00;7.45;;;;;;;;;;5038327;28;20122;-62
2022/04/09 05:19:48;;;;;;;16.65;6.65;;;;;;;;;;5055615;28;20029;-62
2022/04/09 05:22:14;;;;;;;15.00;7.80;;;;;;;;;;5055649;28;20139;-59
2022/04/09 05:24:40;;;;;;;21.05;7.22;;;;;;;;;;5037411;28;20066;-60
2022/04/09 05:27:06;;;;;;;19.27;7.10;;;;;;;;;;5055551;28;20479;-61
2022/04/09 05:29:32;;;;;;;16.80;7.30;;;;;;;;;;5055325;28;20021;-60
2022/04/09 05:31:59;;;;;;;20.13;7.40;;;;;;;;;;5055853;28;20035;-62
2022/04/09 05:34:25;;;;;;;20.80;7.07;;;;;;;;;;5037210;28;20029;-62
2022/04/09 05:36:51;;;;;;;21.10;7.78;;;;;;;;;;5056310;28;20032;-61
2022/04/09 05:39:17;;;;;;;17.80;7.20;;;;;;;;;;5055046;28;20490;-61
2022/04/09 05:41:43;;;;;;;23.55;7.15;;;;;;;;;;5055594;28;20025;-61
2022/04/09 05:44:09;;;;;;;19.33;6.85;;;;;;;;;;5055016;28;20108;-58
2022/04/09 05:46:35;;;;;;;15.48;6.30;;;;;;;;;;5037281;28;20095;-62
2022/04/09 05:49:02;;;;;;;22.08;7.15;;;;;;;;;;5054705;28;20033;-61
2022/04/09 05:51:28;;;;;;;22.45;6.80;;;;;;;;;;5055158;28;20021;-59
2022/04/09 05:53:55;;;;;;;18.20;6.97;;;;;;;;;;5054791;28;20603;-60
2022/04/09 05:56:22;;;;;;;19.88;7.20;;;;;;;;;;5054706;28;20040;-63
2022/04/09 05:58:48;;;;;;;17.88;6.43;;;;;;;;;;5054894;28;20021;-62
2022/04/09 06:01:14;;;;;;;18.67;6.18;;;;;;;;;;5037267;28;20021;-61
2022/04/09 06:03:40;;;;;;;19.17;5.68;;;;;;;;;;5037264;28;20024;-62
2022/04/09 06:06:06;;;;;;;23.55;6.72;;;;;;;;;;5054856;28;20488;-59
2022/04/09 06:08:35;;;;;;;16.90;6.22;;;;;;;;;;5054889;28;20032;-62
2022/04/09 06:11:01;;;;;;;19.98;6.50;;;;;;;;;;5036708;28;20435;-58
2022/04/09 06:13:27;;;;;;;17.38;6.70;;;;;;;;;;5054870;28;20033;-60
2022/04/09 06:15:54;;;;;;;15.98;5.93;;;;;;;;;;5054597;28;20029;-60
2022/04/09 06:18:20;;;;;;;17.65;7.03;;;;;;;;;;5036962;28;20064;-60
2022/04/09 06:20:45;;;;;;;19.67;5.82;;;;;;;;;;5054345;28;20025;-60
2022/04/09 06:23:11;;;;;;;15.88;6.05;;;;;;;;;;5036067;28;20401;-60
2022/04/09 06:25:37;;;;;;;19.85;7.10;;;;;;;;;;5042793;28;20096;-58
2022/04/09 06:28:04;;;;;;;16.85;7.82;;;;;;;;;;5042610;28;20028;-62
2022/04/09 06:30:30;;;;;;;17.33;7.90;;;;;;;;;;5016499;28;20022;-60
2022/04/09 06:32:56;;;;;;;18.10;11.45;;;;;;;;;;5039067;28;20035;-61
2022/04/09 06:35:24;;;;;;;19.13;12.60;;;;;;;;;;5042459;28;20029;-57
2022/04/09 06:37:50;;;;;;;;;;;;;;;;;;5025686;28;20389;-60
2022/04/09 06:40:17;;;;;;;27.52;12.68;;;;;;;;;;5045363;28;19908;-62
2022/04/09 06:42:43;;;;;;;21.13;13.02;;;;;;;;;;5042657;28;20393;-57
2022/04/09 06:45:10;;;;;;;18.42;13.35;;;;;;;;;;5030097;28;20013;-61
2022/04/09 06:47:39;;;;;;;18.38;12.90;;;;;;;;;;5053860;28;20236;-60
2022/04/09 06:50:09;;;;;;;18.35;12.95;;;;;;;;;;5053733;28;20032;-61
2022/04/09 06:52:36;;;;;;;20.33;13.05;;;;;;;;;;5036411;28;20025;-60
2022/04/09 06:55:02;;;;;;;18.67;13.25;;;;;;;;;;5053638;28;20489;-60
2022/04/09 06:57:28;;;;;;;19.85;13.98;;;;;;;;;;5053790;28;20066;-59
2022/04/09 06:59:58;;;;;;;17.67;12.20;;;;;;;;;;5053334;28;20043;-61
2022/04/09 07:02:24;;;;;;;18.08;12.40;;;;;;;;;;5053605;28;20021;-62
2022/04/09 07:04:51;;;;;;;18.02;10.98;;;;;;;;;;5053477;28;20072;-62
2022/04/09 07:07:23;;;;;;;17.52;11.07;;;;;;;;;;5053744;28;20431;-60
2022/04/09 07:09:49;;;;;;;24.17;11.35;;;;;;;;;;5053457;28;20088;-57
2022/04/09 07:12:16;;;;;;;16.10;10.32;;;;;;;;;;5053993;28;20028;-59
2022/04/09 07:14:42;;;;;;;16.58;9.98;;;;;;;;;;5035823;28;20367;-62
2022/04/09 07:17:08;;;;;;;16.45;9.02;;;;;;;;;;5053685;28;20024;-59
2022/04/09 07:19:34;;;;;;;18.45;9.73;;;;;;;;;;5053122;28;20040;-62
2022/04/09 07:22:00;;;;;;;20.30;8.73;;;;;;;;;;5053412;28;20029;-61
2022/04/09 07:24:26;;;;;;;17.63;9.18;;;;;;;;;;5053075;28;20074;-60
2022/04/09 07:26:52;;;;;;;15.23;7.95;;;;;;;;;;5035474;28;20100;-60
2022/04/09 07:29:18;;;;;;;16.25;8.30;;;;;;;;;;5053027;28;20029;-61
2022/04/09 07:31:46;;;;;;;17.95;8.40;;;;;;;;;;5053228;28;20039;-62
2022/04/09 07:34:12;;;;;;;20.92;8.85;;;;;;;;;;5052392;28;20036;-62
2022/04/09 07:36:38;;;;;;;22.95;8.93;;;;;;;;;;5053557;28;20131;-62
2022/04/09 07:39:06;;;;;;;21.65;8.32;;;;;;;;;;5052941;28;20032;-63
2022/04/09 07:41:32;;;;;;;15.45;8.32;;;;;;;;;;5035231;28;20025;-59
2022/04/09 07:43:58;;;;;;;17.42;7.97;;;;;;;;;;5034962;28;20036;-60
2022/04/09 07:46:24;;;;;;;16.30;8.65;;;;;;;;;;5035095;28;20021;-60
2022/04/09 07:48:50;;;;;;;19.70;8.43;;;;;;;;;;5052780;28;20549;-61
2022/04/09 07:51:16;;;;;;;15.90;7.32;;;;;;;;;;5035184;28;20032;-63
2022/04/09 07:53:42;;;;;;;19.48;9.55;;;;;;;;;;5035060;28;20036;-56
2022/04/09 07:56:08;;;;;;;18.60;7.90;;;;;;;;;;5034876;28;20029;-60
2022/04/09 07:58:34;;;;;;;17.63;11.85;;;;;;;;;;5035015;28;20037;-61
2022/04/09 08:01:00;;;;;;;20.98;14.90;;;;;;;;;;5052133;28;20090;-63
2022/04/09 08:03:26;;;;;;;24.48;19.85;;;;;;;;;;5052702;28;20032;-61
2022/04/09 08:05:52;;;;;;;25.35;19.58;;;;;;;;;;5052060;28;20476;-60
2022/04/09 08:08:19;;;;;;;23.83;18.63;;;;;;;;;;5052563;28;20036;-61
2022/04/09 08:10:45;;;;;;;19.92;15.02;;;;;;;;;;5034221;28;20021;-61
2022/04/09 08:13:11;;;;;;;20.55;14.55;;;;;;;;;;5052588;28;20385;-62
2022/04/09 08:15:37;;;;;;;20.50;12.05;;;;;;;;;;5051838;28;20029;-61
2022/04/09 08:18:07;;;;;;;19.92;11.10;;;;;;;;;;5052563;28;20058;-61
2022/04/09 08:20:33;;;;;;;20.17;10.70;;;;;;;;;;5052082;28;20056;-60
2022/04/09 08:23:00;;;;;;;17.95;10.50;;;;;;;;;;5052541;28;20083;-61
2022/04/09 08:25:26;;;;;;;17.00;9.98;;;;;;;;;;5051926;28;20083;-61
2022/04/09 08:27:53;;;;;;;18.30;9.23;;;;;;;;;;5052444;28;20044;-58
2022/04/09 08:30:21;;;;;;;17.40;9.43;;;;;;;;;;5034791;28;20027;-58
2022/04/09 08:32:49;;;;;;;16.65;9.18;;;;;;;;;;5034510;28;20029;-57
2022/04/09 08:35:15;;;;;;;20.42;8.35;;;;;;;;;;5051899;28;20136;-57
2022/04/09 08:37:41;;;;;;;17.08;8.15;;;;;;;;;;5052193;28;20064;-54
2022/04/09 08:40:09;;;;;;;16.88;7.80;;;;;;;;;;5051965;28;20032;-58
2022/04/09 08:42:36;;;;;;;16.15;8.10;;;;;;;;;;5051978;28;20104;-61
2022/04/09 08:45:02;;;;;;;18.95;8.55;;;;;;;;;;5050890;28;20033;-58
2022/04/09 08:47:28;;;;;;;17.05;7.93;;;;;;;;;;5033955;28;20021;-61
2022/04/09 08:49:55;;;;;;;14.93;7.80;;;;;;;;;;5045582;28;20024;-59
2022/04/09 08:52:22;;;;;;;15.17;7.80;;;;;;;;;;4701787;28;10000901;-64
2022/04/09 08:54:48;;;;;;;16.73;7.05;;;;;;;;;;5043449;28;20116;-59
2022/04/09 08:57:15;;;;;;;17.63;7.63;;;;;;;;;;5041586;28;20512;-55
2022/04/09 08:59:41;;;;;;;15.70;6.80;;;;;;;;;;5016468;28;20417;-56
2022/04/09 09:02:07;;;;;;;19.67;7.78;;;;;;;;;;5029216;28;20036;-60
2022/04/09 09:04:34;;;;;;;19.23;7.10;;;;;;;;;;5032733;28;20028;-66
2022/04/09 09:07:18;;;;;;;17.58;7.30;;;;;;;;;;5052107;28;20381;-68
2022/04/09 09:09:45;;;;;;;16.63;7.60;;;;;;;;;;5033684;28;20121;-67
2022/04/09 09:12:12;;;;;;;15.48;6.90;;;;;;;;;;5021616;28;20097;-62
2022/04/09 09:14:44;;;;;;;15.83;6.57;;;;;;;;;;5032366;28;20048;-69
2022/04/09 09:17:11;;;;;;;11.70;6.20;;;;;;;;;;5031149;28;20107;-66
2022/04/09 09:19:47;;;;;;;15.77;6.97;;;;;;;;;;5032216;28;20022;-69
2022/04/09 09:22:14;;;;;;;13.02;5.88;;;;;;;;;;5013772;28;20115;-68
2022/04/09 09:24:40;;;;;;;13.43;6.50;;;;;;;;;;5012244;28;20031;-67
2022/04/09 09:27:07;;;;;;;14.15;6.60;;;;;;;;;;5012186;28;20037;-67
2022/04/09 09:29:33;;;;;;;13.48;7.07;;;;;;;;;;5043682;28;20017;-68
2022/04/09 09:32:01;;;;;;;13.05;6.00;;;;;;;;;;5031708;28;20032;-66
2022/04/09 09:34:28;;;;;;;13.97;6.97;;;;;;;;;;5049090;28;20083;-66
2022/04/09 09:36:55;;;;;;;14.15;6.80;;;;;;;;;;5048945;28;20052;-66
2022/04/09 09:39:22;;;;;;;17.63;6.65;;;;;;;;;;5049218;28;20025;-68
2022/04/09 09:41:55;;;;;;;15.43;6.57;;;;;;;;;;5049157;28;20389;-68
2022/04/09 09:44:22;;;;;;;12.35;6.35;;;;;;;;;;5031718;28;20025;-68
2022/04/09 09:46:49;;;;;;;12.98;6.30;;;;;;;;;;5031543;28;20021;-67
2022/04/09 09:49:19;;;;;;;14.25;6.90;;;;;;;;;;5029534;28;20036;-67
2022/04/09 09:51:46;;;;;;;13.07;6.32;;;;;;;;;;5029584;28;20079;-67
2022/04/09 09:54:13;;;;;;;15.70;6.65;;;;;;;;;;5044970;28;20087;-65
2022/04/09 09:56:41;;;;;;;14.95;6.57;;;;;;;;;;5050330;28;20029;-66
2022/04/09 09:59:07;;;;;;;17.38;7.75;;;;;;;;;;5044965;28;20029;-64
2022/04/09 10:01:37;;;;;;;13.80;6.85;;;;;;;;;;5032646;28;20045;-66
2022/04/09 10:04:04;;;;;;;13.90;7.10;;;;;;;;;;5031964;28;20104;-65
2022/04/09 10:06:32;;;;;;;17.25;8.23;;;;;;;;;;5014655;28;20430;-65
2022/04/09 10:08:58;;;;;;;14.32;8.45;;;;;;;;;;5033259;28;20066;-65
2022/04/09 10:11:24;;;;;;;15.30;8.18;;;;;;;;;;5035153;28;20440;-64
2022/04/09 10:13:52;;;;;;;13.13;7.30;;;;;;;;;;5015102;28;20113;-65
2022/04/09 10:16:18;;;;;;;14.10;7.18;;;;;;;;;;5015070;28;20045;-66
2022/04/09 10:18:48;;;;;;;13.52;7.10;;;;;;;;;;5033030;28;20093;-64
2022/04/09 10:21:14;;;;;;;13.73;7.13;;;;;;;;;;5033177;28;20025;-65
2022/04/09 10:23:40;;;;;;;13.45;7.15;;;;;;;;;;5015395;28;20036;-65
2022/04/09 10:26:06;;;;;;;12.80;6.50;;;;;;;;;;5014615;28;20026;-67
2022/04/09 10:28:38;;;;;;;13.68;6.90;;;;;;;;;;5035656;28;20474;-67
2022/04/09 10:31:22;;;;;;;12.63;5.53;;;;;;;;;;5053999;28;20067;-66
2022/04/09 10:33:58;;;;;;;14.02;6.20;;;;;;;;;;5036314;28;20025;-66
2022/04/09 10:36:43;;;;;;;15.40;5.80;;;;;;;;;;5053641;28;20043;-65
2022/04/09 10:39:25;;;;;;;12.15;5.50;;;;;;;;;;5036032;28;20033;-64
2022/04/09 10:41:51;;;;;;;14.13;5.72;;;;;;;;;;5054486;28;20087;-67
2022/04/09 10:44:35;;;;;;;15.82;6.60;;;;;;;;;;5036034;28;20036;-67
2022/04/09 10:47:02;;;;;;;15.73;8.25;;;;;;;;;;5054544;28;20402;-65
2022/04/09 10:49:29;;;;;;;20.92;18.55;;;;;;;;;;5053219;28;20025;-65
2022/04/09 10:52:04;;;;;;;25.08;22.77;;;;;;;;;;5053843;28;20446;-67
2022/04/09 10:54:30;;;;;;;29.98;27.48;;;;;;;;;;5053567;28;20048;-67
2022/04/09 10:57:06;;;;;;;32.42;29.83;;;;;;;;;;5053678;28;20102;-67
2022/04/09 10:59:33;;;;;;;29.33;26.92;;;;;;;;;;5053449;28;20021;-67
2022/04/09 11:02:00;;;;;;;25.33;23.23;;;;;;;;;;5053705;28;20025;-66
2022/04/09 11:04:34;;;;;;;24.85;22.33;;;;;;;;;;5053707;28;20035;-66
2022/04/09 11:07:10;;;;;;;22.38;20.10;;;;;;;;;;5036268;28;20021;-67
2022/04/09 11:09:45;;;;;;;24.67;18.30;;;;;;;;;;5051586;28;20233;-66
2022/04/09 11:12:15;;;;;;;19.38;17.48;;;;;;;;;;5036180;28;20025;-65
2022/04/09 11:14:50;;;;;;;19.17;17.05;;;;;;;;;;5036031;28;20116;-65
2022/04/09 11:17:17;;;;;;;18.77;13.98;;;;;;;;;;5036201;28;20028;-65
2022/04/09 11:19:47;;;;;;;16.60;11.35;;;;;;;;;;5054976;28;20036;-66
2022/04/09 11:22:13;;;;;;;16.30;10.27;;;;;;;;;;5036599;28;20111;-67
2022/04/09 11:24:39;;;;;;;16.00;9.25;;;;;;;;;;5036059;28;20107;-64
2022/04/09 11:27:05;;;;;;;22.10;9.13;;;;;;;;;;5038223;28;20027;-69
2022/04/09 11:29:33;;;;;;;17.08;8.95;;;;;;;;;;4686502;28;9999652;-69
2022/04/09 11:31:59;;;;;;;14.77;8.50;;;;;;;;;;5054333;28;20032;-68
2022/04/09 11:34:26;;;;;;;14.70;8.23;;;;;;;;;;5021701;28;20280;-65
2022/04/09 11:37:07;;;;;;;14.30;8.30;;;;;;;;;;5076377;22;20668;-64
2022/04/09 11:39:37;;;;;;;14.10;7.55;;;;;;;;;;5048701;28;20045;-67
2022/04/09 11:42:03;;;;;;;13.63;7.50;;;;;;;;;;5048509;28;20107;-66
2022/04/09 11:44:29;;;;;;;14.27;7.50;;;;;;;;;;5049077;28;20029;-63
2022/04/09 11:46:55;;;;;;;14.10;7.40;;;;;;;;;;5049099;28;20017;-66
2022/04/09 11:49:28;;;;;;;13.95;7.20;;;;;;;;;;5049206;28;20036;-62
2022/04/09 11:51:55;;;;;;;11.48;5.70;;;;;;;;;;5049546;28;20017;-62
2022/04/09 11:54:21;;;;;;;13.77;6.10;;;;;;;;;;5048385;28;20092;-68
2022/04/09 11:56:47;;;;;;;12.13;5.65;;;;;;;;;;5023361;28;20616;-60
2022/04/09 11:59:15;;;;;;;11.77;5.82;;;;;;;;;;5011545;28;20364;-61
2022/04/09 12:01:45;;;;;;;12.88;6.20;;;;;;;;;;5028947;28;20025;-65
2022/04/09 12:04:11;;;;;;;12.82;5.90;;;;;;;;;;5028113;28;20048;-59
2022/04/09 12:06:38;;;;;;;11.27;5.55;;;;;;;;;;5027984;28;20663;-64
2022/04/09 12:09:04;;;;;;;13.40;5.82;;;;;;;;;;5027996;28;20032;-64
2022/04/09 12:11:30;;;;;;;17.33;7.53;;;;;;;;;;5028400;28;20026;-64
2022/04/09 12:13:56;;;;;;;16.75;14.50;;;;;;;;;;5028099;28;20029;-61
2022/04/09 12:16:22;;;;;;;16.48;13.32;;;;;;;;;;5027607;28;20661;-62
2022/04/09 12:18:48;;;;;;;15.90;11.60;;;;;;;;;;5027479;28;20037;-63
2022/04/09 12:21:29;;;;;;;14.90;11.65;;;;;;;;;;5010075;28;20042;-62
2022/04/09 12:24:08;;;;;;;16.55;11.93;;;;;;;;;;5014811;28;20030;-63
2022/04/09 12:26:36;;;;;;;13.98;9.27;;;;;;;;;;5042625;28;20078;-63
2022/04/09 12:29:08;;;;;;;14.35;8.93;;;;;;;;;;5028937;28;20024;-63
2022/04/09 12:31:35;;;;;;;13.38;7.68;;;;;;;;;;5047656;28;20040;-64
2022/04/09 12:34:01;;;;;;;12.13;6.93;;;;;;;;;;5047969;28;20481;-61
2022/04/09 12:36:27;;;;;;;11.77;6.40;;;;;;;;;;5048459;28;20473;-65
2022/04/09 12:38:53;;;;;;;11.50;6.38;;;;;;;;;;5029754;28;20037;-66
2022/04/09 12:41:19;;;;;;;11.25;6.32;;;;;;;;;;5047652;28;20128;-66
2022/04/09 12:43:47;;;;;;;10.70;5.72;;;;;;;;;;5047585;28;20048;-63
2022/04/09 12:46:14;;;;;;;12.63;5.72;;;;;;;;;;5029953;28;20473;-66
2022/04/09 12:48:50;;;;;;;13.65;5.90;;;;;;;;;;5029900;28;20080;-65
2022/04/09 12:51:21;;;;;;;11.88;6.00;;;;;;;;;;5048116;28;20029;-65
2022/04/09 12:53:55;;;;;;;12.43;6.28;;;;;;;;;;5047376;28;20039;-66
2022/04/09 12:56:21;;;;;;;14.85;8.13;;;;;;;;;;5048069;28;20484;-66
2022/04/09 12:58:47;;;;;;;14.80;8.85;;;;;;;;;;5047723;28;20033;-63
2022/04/09 13:01:14;;;;;;;14.75;8.00;;;;;;;;;;5048382;28;20021;-64
2022/04/09 13:03:41;;;;;;;15.77;7.95;;;;;;;;;;5047464;28;20036;-64
2022/04/09 13:06:07;;;;;;;14.45;7.97;;;;;;;;;;5046809;28;20366;-65
2022/04/09 13:08:33;;;;;;;15.20;7.35;;;;;;;;;;5048426;28;20108;-61
2022/04/09 13:10:59;;;;;;;14.07;6.35;;;11.20;93.20;;;;;;4697153;28;9999885;-65
2022/04/09 13:13:25;;;;;;;12.73;6.35;;;;;;;;;;5048265;28;20032;-66
2022/04/09 13:15:51;;;;;;;13.70;6.13;;;;;;;;;;5047572;28;20021;-66
2022/04/09 13:18:18;;;;;;;14.20;6.50;;;;;;;;;;5030213;28;20029;-65
2022/04/09 13:20:44;;;;;;;13.82;6.50;;;;;;;;;;5047315;28;20025;-57
2022/04/09 13:23:10;;;;;;;14.73;7.10;;;;;;;;;;5045439;28;20097;-65
2022/04/09 13:25:38;;;;;;;12.05;6.30;;;;;;;;;;5029703;28;20025;-66
2022/04/09 13:28:05;;;;;;;12.63;6.35;;;;;;;;;;5048430;28;20029;-65
2022/04/09 13:30:31;;;;;;;12.82;6.10;;;;;;;;;;5043891;28;20566;-65
2022/04/09 13:32:59;;;;;;;10.77;5.38;;;;;;;;;;5031438;28;20075;-67
2022/04/09 13:35:25;;;;;;;14.18;5.82;;;;;;;;;;5031422;28;20033;-59
2022/04/09 13:37:51;;;;;;;14.85;5.70;;;;;;;;;;5030601;28;20053;-58
2022/04/09 13:40:17;;;;;;;11.40;5.30;;;;;;;;;;5026223;28;20386;-56
2022/04/09 13:42:43;;;;;;;15.07;5.45;;;;;;;;;;5050671;28;20456;-58
2022/04/09 13:45:11;;;;;;;12.75;5.70;;;;;;;;;;5049927;28;20418;-54
2022/04/09 13:47:37;;;;;;;11.75;4.90;;;;;;;;;;5032369;28;20032;-60
2022/04/09 13:50:03;;;;;;;10.90;4.90;;;;;;;;;;5051412;28;20044;-57
2022/04/09 13:52:29;;;;;;;13.05;5.35;;;;;;;;;;5053281;28;20112;-57
2022/04/09 13:54:56;;;;;;;11.55;5.60;;;8.90;99.90;;;;;;5034269;28;20131;-59
2022/04/09 13:57:22;;;;;;;11.85;5.57;;;11.50;99.90;;;;;;5047470;28;20108;-55
2022/04/09 13:59:48;;;;;;;13.57;5.70;;;;;;;;;;5053300;28;20172;-57
2022/04/09 14:02:14;;;;;;;12.05;5.68;;;;;;;;;;5053528;28;20021;-56
2022/04/09 14:04:40;;;;;;;12.48;5.82;;;;;;;;;;5053058;28;20452;-59
2022/04/09 14:07:06;;;;;;;13.10;5.82;;;;;;;;;;5052943;28;20053;-56
2022/04/09 14:09:32;;;;;;;10.40;5.68;;;;;;;;;;5052572;28;20075;-57
2022/04/09 14:11:58;;;;;;;12.18;5.78;;;;;;;;;;5053026;28;20068;-57
2022/04/09 14:14:25;;;;;;;12.13;5.85;;;;;;;;;;5035383;28;20024;-55
2022/04/09 14:16:52;;;;;;;12.80;6.05;;;;;;;;;;5035376;28;20036;-57
2022/04/09 14:19:18;;;;;;;11.90;5.90;;;;;;;;;;5052734;28;20037;-60
2022/04/09 14:21:44;;;;;;;11.70;6.30;;;;;;;;;;5052902;28;20453;-57
2022/04/09 14:24:10;;;;;;;12.10;6.30;;;;;;;;;;5052502;28;20064;-55